Flugplatz Neumagen-Dhron

Für EDRD sind keine METAR/TAF Berichte vorhanden.
Es werden die Flugwettermeldungen vom Flugplatz Spangdahlem Air Base in 21 km Entfernung angezeigt.

Bericht für ETAD

vom 18.09. um 20:56 UTC

Wind 10 kt aus 60°

Sichtweite 10 km oder mehr

keine Wolken

Temperatur 16.8°C

Taupunkt 6.6°C

Luftfeuchtigkeit 51%

Luftdruck 1020 hPa

ETAD 182056Z AUTO 06010KT 9999 CLR 17/07 A3013 RMK AO2 SLP186 T01680066 58004

Prognose für ETAD

vom 18.09. um 20:02 UTC

Am 18.09. zwischen 20:00 UTC und 21:00 UTC

Wind 10 kt aus 60° in Böen 15 kt

Sichtweite 10 km oder mehr

keine Wolken


Am 18.09. zwischen 21:00 und 22:00 UTC übergehend zu

Wind 5 kt aus 60°

Sichtweite 10 km oder mehr

keine Wolken


Zwischen 08:00 und 09:00 UTC übergehend zu

Wind 9 kt aus 100°

Sichtweite 10 km oder mehr

gering bewölkt in 5000 ft


Zwischen 17:00 und 18:00 UTC übergehend zu

variable Windrichtung mit 4 kt

Sichtweite 10 km oder mehr

keine Wolken

TAF COR ETAD 182002Z 1820/2002 06010G15KT 9999 SKC QNH3012INS BECMG 1821/1822 06005KT 9999 SKC QNH3008INS BECMG 1908/1909 10009KT 9999 FEW050 QNH3002INS BECMG 1917/1918 VRB04KT 9999 SKC QNH2999INS TX25/1914Z TN09/1904Z LAST NO AMDS AFT 1820 NEXT 1906
Impressum